Flight Track Log - Related Links

Times and Time Zones

All times are in EDT time to prevent confusion due to time zone crossing. See the SWA3943 flight status page for this flight to view local times or setup timezone preferences in your user account.


Time Position Orientation Groundspeed Altitude Reporting Facility
EDT Latitude Longitude Course Direction KTS MPH feet Rate Location/Type
Fri 08:26:49 PM 39.9944 -82.8767 97° East 156 180 1,300  Level Indianapolis Center
Fri 08:27:20 PM 39.9922 -82.8436 95° East 160 184 2,300 2,032 Climbing Indianapolis Center
Fri 08:27:51 PM 39.9922 -82.8114 90° East 205 236 3,400 2,804 Climbing Indianapolis Center
Fri 08:28:52 PM 39.9903 -82.7214 92° East 240 276 6,600 3,246 Climbing Indianapolis Center
Fri 08:29:53 PM 39.9881 -82.6203 92° East 275 316 10,000 2,585 Climbing Indianapolis Center
Fri 08:30:55 PM 39.9833 -82.5017 93° East 317 365 11,900 2,488 Climbing Indianapolis Center
Fri 08:31:56 PM 39.9769 -82.3369 93° East 378 435 15,100 2,829 Climbing Indianapolis Center
Fri 08:32:00 PM 39.9483 -82.1310 97° East  Level FlightAware Approximate
Fri 08:32:58 PM 39.9722 -82.1897 92° East 399 459 17,700  Level Indianapolis Center
Fri 08:33:59 PM 39.9653 -82.0375 93° East 412 474 19,700 2,049 Climbing Indianapolis Center
Fri 08:35:01 PM 39.9581 -81.8783 93° East 431 496 21,900 2,000 Climbing Indianapolis Center
Fri 08:36:02 PM 39.9514 -81.7147 93° East 445 512 23,800 1,918 Climbing Indianapolis Center
Fri 08:37:03 PM 39.9383 -81.5478 96° East 456 525 25,800 1,561 Climbing Indianapolis Center
Fri 08:38:05 PM 39.9161 -81.3847 100° East 470 541 27,000 1,463 Climbing Indianapolis Center
Fri 08:39:06 PM 39.8925 -81.2094 100° East 486 559 28,800 1,379 Climbing Indianapolis Center
Fri 08:39:32 PM 39.8803 -81.1106 99° East 479 551 29,000 140 Climbing Cleveland Center
Fri 08:40:32 PM 39.8581 -80.9400 100° East 479 551 29,000  Level Cleveland Center
Fri 08:41:32 PM 39.8356 -80.7697 100° East 479 551 29,000  Level Cleveland Center
Fri 08:42:32 PM 39.8086 -80.5967 101° East 479 551 29,000  Level Cleveland Center
Fri 08:43:32 PM 39.7856 -80.4236 100° East 485 558 29,000  Level Cleveland Center
Fri 08:44:32 PM 39.7603 -80.2508 101° East 485 558 29,000  Level Cleveland Center
Fri 08:45:32 PM 39.7367 -80.0783 100° East 485 558 29,000  Level Cleveland Center
Fri 08:46:32 PM 39.7108 -79.9083 101° East 485 558 29,000  Level Cleveland Center
Fri 08:48:29 PM 39.6658 -79.6003 101° East 487 560 29,000 -34 Level Washington Center
Fri 08:49:29 PM 39.6400 -79.4317 101° East 487 560 28,900 -712 Descending Washington Center
Fri 08:50:27 PM 39.6164 -79.2578 100° East 487 560 27,600 -1,966 Descending Washington Center
Fri 08:51:28 PM 39.5844 -79.0706 102° East 490 564 25,000 -1,300 Descending Washington Center
Fri 08:52:27 PM 39.5578 -78.9078 102° East 476 548 25,000  Level Washington Center
Fri 08:53:28 PM 39.5308 -78.7450 102° East 463 533 25,000 -1,200 Level Washington Center
Fri 08:54:27 PM 39.5058 -78.5797 101° East 463 533 22,600 -2,571 Descending Washington Center
Fri 08:55:27 PM 39.4803 -78.4256 102° East 451 519 19,900 -2,678 Descending Washington Center
Fri 08:56:28 PM 39.4544 -78.2767 103° East 438 504 17,200 -2,182 Descending Washington Center
Fri 08:57:28 PM 39.4453 -78.1339 95° East 414 476 15,500 -1,091 Descending Washington Center
Fri 08:58:29 PM 39.4478 -78.0131 88° East 375 432 15,000 -298 Descending Washington Center
Fri 08:59:29 PM 39.4458 -77.8947 91° East 345 397 14,900 51 Descending Washington Center
Fri 09:00:27 PM 39.4458 -77.7792 90° East 329 379 15,100 -655 Climbing Washington Center
Fri 09:01:28 PM 39.4458 -77.6556 90° East 329 379 13,600 -1,426 Descending Washington Center
Fri 09:02:29 PM 39.4458 -77.5400 90° East 329 379 12,200 -1,289 Descending Washington Center
Fri 09:03:29 PM 39.4433 -77.4297 92° East 324 373 11,000 -558 Descending Washington Center
Fri 09:04:38 PM 39.4500 -77.3000 86° East 310 357 11,000 -419 Level Potomac TRACON
Fri 09:05:38 PM 39.4667 -77.1833 79° East 317 365 10,100 -1,200 Descending Potomac TRACON
Fri 09:06:38 PM 39.4667 -77.0667 90° East 307 353 8,600 -1,500 Descending Potomac TRACON
Fri 09:07:38 PM 39.4667 -76.9667 90° East 298 343 7,100 -1,500 Descending Potomac TRACON
Fri 09:08:38 PM 39.4500 -76.8667 102° East 291 335 5,600 -1,429 Descending Potomac TRACON
Fri 09:09:44 PM 39.3833 -76.8333 159° South 264 304 4,100 -1,150 Descending Potomac TRACON
Fri 09:10:38 PM 39.3333 -76.8667 207° Southwest 250 288 3,300 -579 Descending Potomac TRACON
Fri 09:11:38 PM 39.2667 -76.8667 180° South 224 258 3,000 -550 Descending Potomac TRACON
Fri 09:12:38 PM 39.2333 -76.8333 142° Southeast 180 207 2,200 -750 Descending Potomac TRACON
Fri 09:13:38 PM 39.1833 -76.8000 153° Southeast 160 184 1,500 -450 Descending Potomac TRACON
Fri 09:14:38 PM 39.1833 -76.7500 90° East 130 150 1,300 -450 Descending Potomac TRACON
Fri 09:15:38 PM 39.1833 -76.7167 90° East 122 140 600 -700 Descending Potomac TRACON
Fri 09:17:00 PM 39.1667 -76.6667 142° Southeast  Level FlightAware Approximate
Fri 09:24:00 PM 39.1754 -76.6683 142° Southeast  Level Estimated
Fri 09:25:00 PM 39.1754 -76.6683 142° Southeast  Level Estimated
Fri 09:26:00 PM 39.1754 -76.6683 142° Southeast  Level Estimated

Login

Don't have an account? Register now (free) for customized features, flight alerts, and more!